Terminal Aerodrome Forecast
Issued by NWS Flagstaff, AZ

Home | Current Version | Previous Version | Text Only | Print | Product List | Glossary On
Versions: 1 2 3 4 5 6 7 8 9 10 11 12 13 14 15 16 17 18 19 20 21 22 23 24
000
FTUS45 KFGZ 211729
TAFFLG
TAF
KFLG 211729Z 2118/2218 VRB06KT P6SM FEW050 BKN090
      TEMPO 2119/2123 VRB01G20KT 5SM TSRA BKN045CB
     FM220000 VRB05KT P6SM BKN060 BKN080
      TEMPO 2200/2204 5SM TSRA BKN045CB=

USA.gov is the U.S. government's official web portal to all federal, state and local government web resources and services.